Waldorf, MN (56091)

11:12 AM CDT on October 30, 2014 (GMT -0500)
Blue Valley Sod | Change Station
CLOSE
Current Station
Personal Weather Station
Location: Mapleton, MN
Elevation: 1014 ft
Nearby Weather Stations

Elev 1014 ft 43.94 °N, 93.83 °W | Updated 25 minutes ago

Overcast
Overcast
45.9 °F
Feels Like 43 °F
N
6.0
Wind Variable Wind from SSE
Gusts 9.0 mph

Today
High -- | Low -- °F
--% Chance of Precip.
Yesterday
High -- | Low -- °F
Precip. -- in
7:48 AM 6:07 PM
Waxing Crescent, 45% visible
Pressure 30.07 in
Visibility 10.0 miles
Clouds Overcast 6000 ft
Windchill 43 °F
Dew Point 39 °F
Humidity 78%
Rainfall 0.00 in
Snow Depth Not available.
UV 1 out of 12
Pollen .80 out of 12
Air Quality Not available.
Flu Activity Not available.
METAR KACQ 301554Z AUTO 12003KT 10SM OVC060 06/00 A3007 RMK AO2

More Conditions Fewer Conditions

Pressure 30.07 in
Visibility 10.0 miles
Clouds Overcast 6000 ft
Windchill 43 °F
Dew Point 39 °F
Humidity 78%
Rainfall 0.00 in
Snow Depth Not available.
UV 1 out of 12
Pollen .80 out of 12
Air Quality Not available.
Flu Activity Not available.
METAR KACQ 301554Z AUTO 12003KT 10SM OVC060 06/00 A3007 RMK AO2

More Conditions Fewer Conditions

10-Day Weather Forecast

Almanac

Astronomy

Oct. 30, 2014 Rise Set
Actual Time
Civil Twilight
Nautical Twilight
Astronomical Twilight
Moon
Length of Visible Light
Length of Day
Tomorrow will be .
, % of the Moon is Illuminated

Today's Extremes

State Highs State Lows

Community

WunderPhotos

Upload Photos

1,766,398 photos uploaded!

WunderBlogs® & News

Nearby

Air Quality

  Air Quality AQ Index Pollutant
Not available.

Snow Depth

Station Depth Elevation

Earthquake Activity

City Distance Mag. Time & Date
Minimum magnitude displayed is 2.5.

Coastal Water Temperatures

Place Temperature

Nearby Weather Stations